Flight Track Log - Related Links

Times and Time Zones

All times are in EDT time to prevent confusion due to time zone crossing. See the N9769H flight status page for this flight to view local times or setup timezone preferences in your user account.


Time Position Orientation Groundspeed Altitude Reporting Facility
EDT Latitude Longitude Course Direction KTS MPH feet Rate Location/Type
Sun 03:42:32 PM 35.9797 -85.1858 292° West 75 86 4,300  Level Memphis Center
Sun 03:43:32 PM 35.9889 -85.2058 300° West 41 47 4,900 550 Climbing Memphis Center
Sun 03:44:32 PM 36.0006 -85.2333 298° West 58 67 5,400 450 Climbing Memphis Center
Sun 03:45:32 PM 36.0100 -85.2611 293° West 80 92 5,800 450 Climbing Memphis Center
Sun 03:46:32 PM 36.0217 -85.2911 296° West 91 105 6,300 500 Climbing Memphis Center
Sun 03:47:00 PM 36.0008 -85.2690 292° West  Level FlightAware Approximate
Sun 03:47:32 PM 36.0333 -85.3186 298° West 91 105 6,800  Level Memphis Center
Sun 03:48:32 PM 36.0447 -85.3461 297° West 91 105 7,400 450 Climbing Memphis Center
Sun 03:49:32 PM 36.0564 -85.3736 298° West 91 105 7,700 350 Climbing Memphis Center
Sun 03:50:32 PM 36.0617 -85.4017 283° West 91 105 8,100 200 Climbing Memphis Center
Sun 03:51:32 PM 36.0672 -85.4397 280° West 91 105 8,100 50 Level Memphis Center
Sun 03:52:32 PM 36.0769 -85.4750 289° West 104 120 8,200  Climbing Memphis Center
Sun 03:53:32 PM 36.0850 -85.5158 284° West 114 131 8,100 -50 Descending Memphis Center
Sun 03:54:32 PM 36.0906 -85.5539 280° West 119 137 8,100  Level Memphis Center
Sun 03:55:32 PM 36.1025 -85.5942 290° West 124 143 8,100  Level Memphis Center
Sun 03:56:32 PM 36.1122 -85.6322 288° West 124 143 8,100  Level Memphis Center
Sun 03:57:32 PM 36.1222 -85.6728 287° West 124 143 8,100  Level Memphis Center
Sun 03:58:32 PM 36.1319 -85.7108 288° West 124 143 8,100 50 Level Memphis Center
Sun 03:59:32 PM 36.1439 -85.7486 291° West 124 143 8,200  Climbing Memphis Center
Sun 04:00:32 PM 36.1558 -85.7892 290° West 124 143 8,100 -50 Descending Memphis Center
Sun 04:01:32 PM 36.1700 -85.8347 291° West 124 143 8,100  Level Memphis Center
Sun 04:02:32 PM 36.1817 -85.8725 291° West 124 143 8,100 50 Level Memphis Center
Sun 04:03:32 PM 36.1936 -85.9106 291° West 124 143 8,200 50 Climbing Memphis Center
Sun 04:04:32 PM 36.2053 -85.9483 291° West 124 143 8,200 50 Level Memphis Center
Sun 04:05:32 PM 36.2169 -85.9864 291° West 124 143 8,300 -50 Climbing Memphis Center
Sun 04:06:32 PM 36.2267 -86.0219 289° West 124 143 8,100 -100 Descending Memphis Center
Sun 04:07:32 PM 36.2406 -86.0622 293° West 124 143 8,100 -50 Level Memphis Center
Sun 04:08:32 PM 36.2503 -86.1003 288° West 118 136 8,000 -50 Descending Memphis Center
Sun 04:09:32 PM 36.2578 -86.1411 283° West 123 142 8,000  Level Memphis Center
Sun 04:10:32 PM 36.2653 -86.1794 284° West 123 142 8,000  Level Memphis Center
Sun 04:11:32 PM 36.2750 -86.2175 288° West 123 142 8,000 50 Level Memphis Center
Sun 04:12:32 PM 36.2889 -86.2581 293° West 123 142 8,100 50 Climbing Memphis Center
Sun 04:13:32 PM 36.3006 -86.2986 290° West 123 142 8,100  Level Memphis Center
Sun 04:15:36 PM 36.3333 -86.3667 301° West 117 135 8,100 -33 Level Nashville TRACON
Sun 04:16:36 PM 36.3333 -86.4000 270° West 118 136 8,000  Descending Nashville TRACON
Sun 04:17:36 PM 36.3500 -86.4500 292° West 117 135 8,100 50 Climbing Nashville TRACON
Sun 04:18:36 PM 36.3667 -86.4833 302° West 113 130 8,100  Level Nashville TRACON
Sun 04:19:42 PM 36.3833 -86.5167 302° West 113 130 8,100 -48 Level Nashville TRACON
Sun 04:20:42 PM 36.3833 -86.5667 270° West 116 133 8,000 -53 Descending Nashville TRACON
Sun 04:21:36 PM 36.4000 -86.6000 302° West 115 132 8,000  Level Nashville TRACON
Sun 04:22:36 PM 36.4167 -86.6333 302° West 114 131 8,000  Level Nashville TRACON
Sun 04:23:36 PM 36.4333 -86.6667 302° West 115 132 8,000  Level Nashville TRACON
Sun 04:24:36 PM 36.4333 -86.7000 270° West 113 130 8,000 50 Level Nashville TRACON
Sun 04:25:36 PM 36.4500 -86.7333 302° West 115 132 8,100 50 Climbing Nashville TRACON
Sun 04:26:36 PM 36.4667 -86.7833 293° West 114 131 8,100  Level Nashville TRACON
Sun 04:27:36 PM 36.4667 -86.8167 270° West 117 135 8,100  Level Nashville TRACON
Sun 04:28:36 PM 36.4833 -86.8500 302° West 118 136 8,100  Level Nashville TRACON
Sun 04:29:43 PM 36.4833 -86.9000 270° West 117 135 8,100  Level Nashville TRACON
Sun 04:30:43 PM 36.5000 -86.9333 302° West 116 133 8,100  Level Nashville TRACON
Sun 04:31:21 PM 36.5039 -86.9622 280° West 118 136 8,100  Level Memphis Center
Sun 04:31:45 PM 36.5086 -86.9775 291° West 119 137 8,100  Level Memphis Center
Sun 04:32:45 PM 36.5200 -87.0131 292° West 119 137 8,100 -50 Level Memphis Center
Sun 04:33:46 PM 36.5314 -87.0567 288° West 121 139 8,000 -49 Descending Memphis Center
Sun 04:34:47 PM 36.5428 -87.0922 292° West 121 139 8,000  Level Memphis Center
Sun 04:35:53 PM 36.5567 -87.1381 291° West 121 139 8,000  Level Memphis Center
Sun 04:36:48 PM 36.5681 -87.1739 292° West 122 140 8,000 52 Level Memphis Center
Sun 04:37:49 PM 36.5772 -87.2122 287° West 122 140 8,100  Climbing Memphis Center
Sun 04:38:43 PM 36.5906 -87.2453 297° West 120 138 8,000  Descending Memphis Center
Sun 04:39:44 PM 36.6083 -87.2861 298° West 121 139 8,100  Climbing Memphis Center
Sun 04:40:45 PM 36.6217 -87.3217 295° West 121 139 8,000 -50 Descending Memphis Center
Sun 04:41:45 PM 36.6372 -87.3600 297° West 122 140 8,000  Level Memphis Center
Sun 04:42:46 PM 36.6528 -87.3981 297° West 122 140 8,000  Level Memphis Center
Sun 04:43:46 PM 36.6683 -87.4389 295° West 122 140 8,000 -47 Level Memphis Center
Sun 04:44:53 PM 36.6881 -87.4822 300° West 132 152 7,900 -47 Descending Memphis Center
Sun 04:45:54 PM 36.6953 -87.5261 282° West 126 145 7,900  Level Memphis Center
Sun 04:46:54 PM 36.7067 -87.5669 289° West 122 140 7,900  Level Memphis Center
Sun 04:47:55 PM 36.7158 -87.6056 287° West 122 140 7,900 49 Level Memphis Center
Sun 04:48:56 PM 36.7250 -87.6467 286° West 123 142 8,000 50 Climbing Memphis Center
Sun 04:49:56 PM 36.7322 -87.6878 282° West 122 140 8,000  Level Memphis Center
Sun 04:50:57 PM 36.7436 -87.7314 288° West 123 142 8,000  Level Memphis Center
Sun 04:51:58 PM 36.7528 -87.7700 287° West 124 143 8,000 50 Level Memphis Center
Sun 04:52:58 PM 36.7619 -87.8111 286° West 122 140 8,100 50 Climbing Memphis Center
Sun 04:53:59 PM 36.7731 -87.8522 289° West 121 139 8,100  Level Memphis Center
Sun 04:54:56 PM 36.7822 -87.8881 288° West 127 146 8,100  Level Memphis Center
Sun 04:55:56 PM 36.7933 -87.9242 291° West 127 146 8,100 -50 Level Memphis Center
Sun 04:56:56 PM 36.8067 -87.9678 291° West 127 146 8,000  Descending Memphis Center
Sun 04:57:56 PM 36.8178 -88.0064 290° West 127 146 8,100 50 Climbing Memphis Center
Sun 04:58:56 PM 36.8292 -88.0475 289° West 122 140 8,100  Level Memphis Center
Sun 04:59:56 PM 36.8381 -88.0861 286° West 128 147 8,100  Level Memphis Center
Sun 05:00:56 PM 36.8514 -88.1322 290° West 128 147 8,100  Level Memphis Center
Sun 05:01:56 PM 36.8628 -88.1761 288° West 128 147 8,100  Level Memphis Center
Sun 05:02:56 PM 36.8739 -88.2172 289° West 128 147 8,100 -50 Level Memphis Center
Sun 05:03:56 PM 36.8828 -88.2611 284° West 128 147 8,000 -50 Descending Memphis Center
Sun 05:04:56 PM 36.8919 -88.3050 285° West 128 147 8,000  Level Memphis Center
Sun 05:05:56 PM 36.9011 -88.3489 285° West 128 147 8,000  Level Memphis Center
Sun 05:06:56 PM 36.9122 -88.3953 287° West 128 147 8,000 50 Level Memphis Center
Sun 05:07:56 PM 36.9211 -88.4367 285° West 128 147 8,100  Climbing Memphis Center
Sun 05:08:56 PM 36.9322 -88.4806 288° West 128 147 8,000 -100 Descending Memphis Center
Sun 05:09:56 PM 36.9433 -88.5244 288° West 128 147 7,900  Descending Memphis Center
Sun 05:10:56 PM 36.9522 -88.5656 285° West 128 147 8,000 50 Climbing Memphis Center
Sun 05:11:56 PM 36.9633 -88.6069 289° West 128 147 8,000  Level Memphis Center
Sun 05:12:56 PM 36.9722 -88.6536 283° West 128 147 8,000 -150 Level Memphis Center
Sun 05:13:56 PM 36.9853 -88.6975 290° West 128 147 7,700 -400 Descending Memphis Center
Sun 05:14:56 PM 36.9964 -88.7439 287° West 128 147 7,200 -550 Descending Memphis Center
Sun 05:15:56 PM 37.0053 -88.7906 283° West 134 154 6,600 -600 Descending Memphis Center
Sun 05:16:56 PM 37.0206 -88.8344 294° West 139 160 6,000 -600 Descending Memphis Center
Sun 05:17:56 PM 37.0336 -88.8836 288° West 139 160 5,400 -600 Descending Memphis Center
Sun 05:18:56 PM 37.0444 -88.9275 287° West 143 165 4,800 -600 Descending Memphis Center
Sun 05:19:56 PM 37.0533 -88.9714 284° West 143 165 4,200 -600 Descending Memphis Center
Sun 05:20:56 PM 37.0683 -89.0153 293° West 143 165 3,600 -500 Descending Memphis Center
Sun 05:21:56 PM 37.0792 -89.0517 290° West 143 165 3,200 -300 Descending Memphis Center
Sun 05:22:56 PM 37.0942 -89.0906 296° West 138 159 3,000 -50 Descending Memphis Center
Sun 05:23:56 PM 37.1092 -89.1397 291° West 129 148 3,100 50 Climbing Memphis Center
Sun 05:24:56 PM 37.1178 -89.1733 288° West 129 148 3,100  Level Memphis Center
Sun 05:25:56 PM 37.1308 -89.2122 293° West 129 148 3,100  Level Memphis Center
Sun 05:26:56 PM 37.1417 -89.2508 289° West 129 148 3,100 -50 Level Memphis Center
Sun 05:27:56 PM 37.1544 -89.2897 292° West 129 148 3,000 -50 Descending Memphis Center
Sun 05:28:56 PM 37.1653 -89.3392 285° West 129 148 3,000  Level Memphis Center
Sun 05:41:00 PM 37.1769 -89.3817 289° West  Level FlightAware Approximate

Login

Don't have an account? Register now (free) for customized features, flight alerts, and more!